Time;durP1;ratioP1;P1;durP2;ratioP2;P2;SDS_P1;SDS_P2;PMS_P1;PMS_P2;Temp;Humidity;BMP_temperature;BMP_pressure;BME280_temperature;BME280_humidity;BME280_pressure;Samples;Min_cycle;Max_cycle;Signal;HPM_P1;HPM_P2
2022/05/18 00:01:16;;;;;;;8.13;6.10;;;;;;;15.36;100.00;94846.88;5056761;27;20044;-72
2022/05/18 00:03:46;;;;;;;9.00;6.45;;;;;;;15.39;100.00;94841.09;5060462;27;20490;-73
2022/05/18 00:06:13;;;;;;;10.98;6.13;;;;;;;15.44;100.00;94848.19;5095343;27;20588;-73
2022/05/18 00:08:41;;;;;;;9.35;6.93;;;;;;;15.37;100.00;94837.94;5088229;27;20430;-71
2022/05/18 00:11:12;;;;;;;13.25;7.05;;;;;;;15.29;100.00;94835.84;5091175;27;20054;-72
2022/05/18 00:13:43;;;;;;;9.48;6.50;;;;;;;15.36;100.00;94846.88;5053441;27;20456;-72
2022/05/18 00:16:11;;;;;;;9.25;6.82;;;;;;;15.38;100.00;94842.16;5069372;27;20063;-73
2022/05/18 00:18:38;;;;;;;11.10;6.65;;;;;;;15.34;100.00;94838.47;5095927;27;20142;-74
2022/05/18 00:21:06;;;;;;;9.27;7.03;;;;;;;15.23;100.00;94826.38;5091898;27;20095;-72
2022/05/18 00:23:34;;;;;;;9.20;7.15;;;;;;;15.24;100.00;94844.47;5080993;27;20038;-72
2022/05/18 00:26:01;;;;;;;11.45;7.30;;;;;;;15.18;100.00;94834.22;5054846;27;20098;-72
2022/05/18 00:28:28;;;;;;;10.50;6.80;;;;;;;15.20;100.00;94842.66;5043202;27;20049;-73
2022/05/18 00:30:57;;;;;;;12.85;7.18;;;;;;;14.93;100.00;94799.03;5043713;27;20063;-73
2022/05/18 00:33:26;;;;;;;10.13;7.45;;;;;;;15.14;100.00;94843.66;5076319;27;20077;-73
2022/05/18 00:35:53;;;;;;;9.65;7.38;;;;;;;15.03;100.00;94838.38;5050912;27;20500;-73
2022/05/18 00:38:20;;;;;;;11.02;8.00;;;;;;;14.98;100.00;94841.03;5065050;27;20050;-73
2022/05/18 00:40:49;;;;;;;11.38;7.93;;;;;;;14.93;100.00;94838.38;5081290;27;20041;-72
2022/05/18 00:43:37;;;;;;;8.00;6.90;;;;;;;14.86;100.00;94837.81;5074430;27;20526;-73
2022/05/18 00:46:07;;;;;;;7.90;6.32;;;;;;;14.81;100.00;94846.44;5037541;27;20206;-72
2022/05/18 00:48:34;;;;;;;12.27;8.48;;;;;;;14.75;100.00;94851.91;5077979;27;20037;-72
2022/05/18 00:51:04;;;;;;;8.93;6.85;;;;;;;14.67;100.00;94851.38;5051563;27;20049;-73
2022/05/18 00:53:54;;;;;;;9.93;6.93;;;;;;;14.54;100.00;94854.44;5047357;27;20052;-73
2022/05/18 00:56:31;;;;;;;9.13;6.72;;;;;;;14.41;100.00;94852.28;5053512;27;20047;-73
2022/05/18 00:59:03;;;;;;;9.27;6.00;;;;;;;14.28;100.00;94846.44;5049619;27;20103;-73
2022/05/18 01:01:30;;;;;;;9.05;6.40;;;;;;;14.14;100.00;94837.44;5123889;27;20041;-72
2022/05/18 01:03:57;;;;;;;9.50;6.35;;;;;;;14.10;100.00;94841.63;5074171;27;20045;-72
2022/05/18 01:06:44;;;;;;;9.15;6.13;;;;;;;14.04;100.00;94829.53;5032721;27;20515;-73
2022/05/18 01:09:11;;;;;;;11.15;6.00;;;;;;;13.98;100.00;94843.63;5137901;27;20045;-72
2022/05/18 01:11:41;;;;;;;9.45;6.65;;;;;;;13.87;100.00;94833.09;5079694;27;20049;-73
2022/05/18 01:14:15;;;;;;;8.80;5.90;;;;;;;13.87;100.00;94843.56;5039876;27;20038;-73
2022/05/18 01:16:42;;;;;;;;;;;;;;;13.79;100.00;94841.38;5038557;27;20040;-72
2022/05/18 01:19:19;;;;;;;8.38;5.75;;;;;;;13.66;100.00;94837.38;5052226;27;19925;-72
2022/05/18 01:21:55;;;;;;;8.85;6.82;;;;;;;13.64;100.00;94833.44;5034462;27;20049;-73
2022/05/18 01:24:39;;;;;;;9.48;6.63;;;;;;;13.51;100.00;94824.94;5055660;27;20059;-72
2022/05/18 01:27:05;;;;;;;10.40;7.00;;;;;;;13.52;100.00;94839.63;5055349;27;20041;-72
2022/05/18 01:29:34;;;;;;;11.70;7.57;;;;;;;13.43;100.00;94828.00;5076461;27;20039;-72
2022/05/18 01:32:05;;;;;;;8.60;6.43;;;;;;;13.42;100.00;94820.44;5075696;27;20052;-72
2022/05/18 01:34:37;;;;;;;9.07;6.55;;;;;;;13.49;100.00;94837.50;5064325;27;20027;-72
2022/05/18 01:37:04;;;;;;;8.75;6.93;;;;;;;13.47;100.00;94833.53;5057963;27;20416;-73
2022/05/18 01:39:38;;;;;;;11.43;7.30;;;;;;;13.41;100.00;94830.09;5066332;27;20543;-72
2022/05/18 01:42:32;;;;;;;10.10;6.30;;;;;;;13.35;100.00;94815.41;5077392;27;20057;-72
2022/05/18 01:44:59;;;;;;;10.90;6.50;;;;;;;13.41;100.00;94824.84;5039564;27;20573;-72
2022/05/18 01:47:32;;;;;;;12.70;7.00;;;;;;;13.44;100.00;94824.38;5064536;27;20043;-72
2022/05/18 01:50:01;;;;;;;11.13;7.07;;;;;;;13.41;100.00;94816.22;5033465;27;20048;-72
2022/05/18 01:52:28;;;;;;;8.82;6.85;;;;;;;13.33;100.00;94807.78;5063692;27;20413;-72
2022/05/18 01:54:55;;;;;;;11.00;7.30;;;;;;;13.25;100.00;94799.56;5072419;27;20039;-73
2022/05/18 01:57:22;;;;;;;9.63;7.25;;;;;;;13.33;100.00;94820.09;5031753;27;20037;-73
2022/05/18 01:59:49;;;;;;;10.70;7.82;;;;;;;13.15;100.00;94785.38;5075179;27;20034;-72
2022/05/18 02:02:15;;;;;;;9.45;7.05;;;;;;;13.23;100.00;94796.41;5036456;27;20047;-73
2022/05/18 02:04:43;;;;;;;9.82;6.90;;;;;;;13.20;100.00;94802.94;5034424;27;20064;-73
2022/05/18 02:07:11;;;;;;;10.25;7.80;;;;;;;13.26;100.00;94807.19;5061552;27;20568;-74
2022/05/18 02:09:39;;;;;;;10.80;7.28;;;;;;;13.25;100.00;94804.81;5067299;27;20049;-74
2022/05/18 02:12:09;;;;;;;12.30;8.30;;;;;;;13.17;100.00;94809.44;5071693;27;20049;-74
2022/05/18 02:14:37;;;;;;;10.88;7.45;;;;;;;13.14;100.00;94807.34;5067278;27;20484;-74
2022/05/18 02:17:04;;;;;;;10.90;7.57;;;;;;;13.16;100.00;94818.34;5071117;27;20036;-74
2022/05/18 02:19:31;;;;;;;12.43;8.10;;;;;;;13.10;100.00;94811.47;5082742;27;20034;-74
2022/05/18 02:21:59;;;;;;;10.75;7.47;;;;;;;13.09;100.00;94820.38;5084609;27;20534;-74
2022/05/18 02:24:26;;;;;;;10.00;7.10;;;;;;;13.16;100.00;94818.34;5046496;27;20049;-74
2022/05/18 02:26:53;;;;;;;11.75;8.65;;;;;;;13.12;100.00;94827.69;5064501;27;20042;-74
2022/05/18 02:29:20;;;;;;;11.18;8.10;;;;;;;13.09;100.00;94817.75;5043006;27;20442;-73
2022/05/18 02:31:47;;;;;;;12.23;7.22;;;;;;;13.12;100.00;94822.47;5086062;27;20039;-71
2022/05/18 02:34:14;;;;;;;10.35;7.80;;;;;;;13.07;100.00;94819.81;5080377;27;20046;-71
2022/05/18 02:36:42;;;;;;;10.02;7.03;;;;;;;12.97;100.00;94811.88;5046613;27;20037;-71
2022/05/18 02:39:09;;;;;;;9.18;6.68;;;;;;;13.02;100.00;94825.00;5072808;27;20031;-71
2022/05/18 02:41:36;;;;;;;11.40;7.30;;;;;;;13.01;100.00;94826.03;5038372;27;20526;-71
2022/05/18 02:44:03;;;;;;;9.35;6.82;;;;;;;12.86;100.00;94791.91;5054349;27;20045;-71
2022/05/18 02:46:29;;;;;;;13.30;8.30;;;;;;;13.07;100.00;94825.06;5035481;27;20106;-71
2022/05/18 02:48:57;;;;;;;11.00;8.05;;;;;;;13.11;100.00;94823.50;5071168;27;20481;-71
2022/05/18 02:51:24;;;;;;;13.30;7.88;;;;;;;13.23;100.00;94827.81;5067502;27;20039;-71
2022/05/18 02:53:50;;;;;;;10.00;7.10;;;;;;;13.23;100.00;94817.34;5036183;27;20045;-73
2022/05/18 02:56:25;;;;;;;12.77;7.78;;;;;;;13.37;100.00;94829.00;5078248;27;20530;-72
2022/05/18 02:58:56;;;;;;;12.23;8.45;;;;;;;13.46;100.00;94837.19;5034293;27;20606;-73
2022/05/18 03:01:28;;;;;;;13.95;8.27;;;;;;;13.55;100.00;94831.25;5045036;27;20045;-73
2022/05/18 03:03:55;;;;;;;11.10;7.68;;;;;;;13.60;100.00;94837.59;5072399;27;20482;-73
2022/05/18 03:06:25;;;;;;;13.20;8.05;;;;;;;13.62;100.00;94832.91;5082504;27;20040;-73
2022/05/18 03:08:53;;;;;;;16.67;7.78;;;;;;;13.61;100.00;94818.22;5044612;27;20515;-73
2022/05/18 03:11:20;;;;;;;11.25;8.35;;;;;;;13.77;100.00;94840.84;5080625;27;20048;-72
2022/05/18 03:13:46;;;;;;;10.15;7.50;;;;;;;13.81;100.00;94844.56;5075619;27;20037;-73
2022/05/18 03:16:14;;;;;;;11.40;7.35;;;;;;;13.78;100.00;94839.81;5071460;27;20552;-73
2022/05/18 03:18:41;;;;;;;14.77;8.75;;;;;;;13.83;100.00;94842.47;5081116;27;20249;-71
2022/05/18 03:23:53;;;;;;;11.43;7.57;;;;;;;13.84;100.00;94849.28;5067630;27;20049;-73
2022/05/18 03:26:22;;;;;;;9.23;7.10;;;;;;;13.92;100.00;94856.69;5070687;27;20039;-73
2022/05/18 03:28:51;;;;;;;11.38;8.13;;;;;;;13.93;100.00;94853.00;5047405;27;20071;-73
2022/05/18 03:31:19;;;;;;;11.05;7.50;;;;;;;13.95;100.00;94864.03;5077728;27;20531;-73
2022/05/18 03:33:46;;;;;;;13.98;7.85;;;;;;;13.95;100.00;94861.44;5081756;27;20056;-73
2022/05/18 03:36:16;;;;;;;10.70;7.00;;;;;;;13.95;100.00;94856.19;5071880;27;20044;-73
2022/05/18 03:38:45;;;;;;;10.32;7.20;;;;;;;14.01;100.00;94858.81;5070764;27;20069;-73
2022/05/18 03:41:13;;;;;;;9.93;6.93;;;;;;;14.05;100.00;94865.16;5079339;27;20064;-73
2022/05/18 03:43:40;;;;;;;9.75;6.75;;;;;;;14.06;100.00;94861.47;5076819;27;20039;-73
2022/05/18 03:46:07;;;;;;;9.95;6.63;;;;;;;14.15;100.00;94870.44;5036311;27;20049;-72
2022/05/18 03:48:34;;;;;;;9.07;6.55;;;;;;;14.13;100.00;94867.28;5069646;27;20472;-73
2022/05/18 03:51:03;;;;;;;8.43;6.47;;;;;;;14.20;100.00;94869.69;5069610;27;20099;-73
2022/05/18 03:53:30;;;;;;;8.73;6.13;;;;;;;14.21;100.00;94874.69;5084225;27;20135;-73
2022/05/18 03:55:58;;;;;;;8.77;6.00;;;;;;;14.24;100.00;94874.19;5039544;27;20031;-73
2022/05/18 03:58:25;;;;;;;8.23;5.68;;;;;;;14.25;100.00;94882.84;5036207;27;20768;-73
2022/05/18 04:00:55;;;;;;;8.48;5.88;;;;;;;14.22;100.00;94876.25;5080333;27;20046;-73
2022/05/18 04:03:25;;;;;;;8.98;6.57;;;;;;;14.28;100.00;94880.50;5065003;27;20037;-73
2022/05/18 04:05:54;;;;;;;9.52;6.50;;;;;;;14.30;100.00;94875.78;5072990;27;20056;-71
2022/05/18 04:08:21;;;;;;;11.30;7.47;;;;;;;14.29;100.00;94876.81;5039673;27;20041;-71
2022/05/18 04:10:48;;;;;;;11.43;7.45;;;;;;;14.35;100.00;94880.28;5080067;27;20076;-71
2022/05/18 04:13:19;;;;;;;7.93;6.05;;;;;;;14.35;100.00;94880.28;5068455;27;20045;-73
2022/05/18 04:15:46;;;;;;;8.98;6.20;;;;;;;14.33;100.00;94872.69;5085316;27;20042;-73
2022/05/18 04:18:13;;;;;;;7.85;6.28;;;;;;;14.34;100.00;94874.25;5057886;27;20048;-73
2022/05/18 04:20:40;;;;;;;8.30;6.10;;;;;;;14.30;100.00;94846.97;5037953;27;20036;-73
2022/05/18 04:23:08;;;;;;;9.52;6.40;;;;;;;14.51;100.00;94873.28;5040615;27;20048;-71
2022/05/18 04:25:36;;;;;;;8.15;6.25;;;;;;;14.54;100.00;94878.03;5038951;27;20511;-74
2022/05/18 04:28:04;;;;;;;11.32;6.82;;;;;;;14.54;100.00;94878.03;5138018;27;20534;-72
2022/05/18 04:30:32;;;;;;;8.05;5.38;;;;;;;14.53;100.00;94881.66;5071880;27;20055;-71
2022/05/18 04:32:59;;;;;;;9.00;5.93;;;;;;;14.60;100.00;94881.47;5071560;27;20609;-71
2022/05/18 04:35:28;;;;;;;9.93;6.13;;;;;;;14.58;100.00;94884.34;5056016;27;20156;-71
2022/05/18 04:37:56;;;;;;;9.32;6.55;;;;;;;14.64;100.00;94872.88;5055830;27;20049;-71
2022/05/18 04:40:23;;;;;;;7.50;5.78;;;;;;;14.65;100.00;94879.69;5073342;27;20039;-71
2022/05/18 04:42:51;;;;;;;9.00;5.72;;;;;;;14.70;100.00;94873.69;5079150;27;20060;-71
2022/05/18 04:45:21;;;;;;;9.68;6.55;;;;;;;14.76;100.00;94874.47;5046222;27;20040;-71
2022/05/18 04:47:49;;;;;;;7.80;6.00;;;;;;;14.77;100.00;94881.31;5054675;27;20083;-70
2022/05/18 04:50:17;;;;;;;11.35;6.95;;;;;;;14.77;100.00;94870.84;5069925;27;20056;-70
2022/05/18 04:52:44;;;;;;;8.55;5.57;;;;;;;14.74;100.00;94855.59;5078790;27;20045;-71
2022/05/18 04:55:12;;;;;;;11.57;5.95;;;;;;;14.84;100.00;94866.16;5087321;27;20161;-70
2022/05/18 04:57:39;;;;;;;7.20;5.70;;;;;;;14.94;100.00;94876.66;5040293;27;20042;-70
2022/05/18 05:00:09;;;;;;;7.78;5.65;;;;;;;14.94;100.00;94876.66;5073217;27;20118;-71
2022/05/18 05:02:37;;;;;;;10.48;5.93;;;;;;;15.04;100.00;94881.94;5068427;27;20037;-71
2022/05/18 05:05:07;;;;;;;9.00;5.97;;;;;;;15.09;100.00;94873.31;5037500;27;20622;-71
2022/05/18 05:07:33;;;;;;;7.68;5.65;;;;;;;15.17;100.00;94887.75;5065002;27;20106;-71
2022/05/18 05:10:02;;;;;;;8.13;5.18;;;;;;;15.12;100.00;94879.88;5067425;27;20041;-72
2022/05/18 05:12:29;;;;;;;7.55;5.47;;;;;;;15.19;100.00;94888.28;5052347;27;20045;-72
2022/05/18 05:14:56;;;;;;;7.68;5.50;;;;;;;15.23;100.00;94889.34;5082947;27;20049;-72
2022/05/18 05:17:23;;;;;;;10.32;6.57;;;;;;;15.22;100.00;94893.03;5075186;27;20046;-72
2022/05/18 05:19:49;;;;;;;10.77;5.53;;;;;;;15.19;100.00;94893.53;5047678;27;20053;-72
2022/05/18 05:22:16;;;;;;;9.13;5.78;;;;;;;15.20;100.00;94876.75;5055505;27;20049;-72
2022/05/18 05:24:43;;;;;;;10.32;5.53;;;;;;;15.28;100.00;94902.47;5072418;27;20046;-72
2022/05/18 05:27:10;;;;;;;9.00;6.07;;;;;;;15.25;100.00;94895.09;5093170;27;20037;-72
2022/05/18 05:29:37;;;;;;;9.82;6.25;;;;;;;15.31;100.00;94907.22;5048909;27;20043;-72
2022/05/18 05:32:07;;;;;;;9.85;5.43;;;;;;;15.31;100.00;94904.59;5079971;27;20049;-72
2022/05/18 05:34:34;;;;;;;9.27;6.50;;;;;;;15.33;100.00;94905.13;5072844;27;20484;-72
2022/05/18 05:37:02;;;;;;;8.88;5.85;;;;;;;15.30;100.00;94900.38;5072474;27;20061;-72
2022/05/18 05:39:29;;;;;;;8.52;6.40;;;;;;;15.37;100.00;94911.41;5047040;27;20079;-72
2022/05/18 05:41:57;;;;;;;12.52;6.40;;;;;;;15.30;100.00;94900.38;5053529;27;20038;-72
2022/05/18 05:44:25;;;;;;;10.15;5.90;;;;;;;15.32;100.00;94908.78;5040007;27;20612;-72
2022/05/18 05:46:51;;;;;;;10.50;5.90;;;;;;;15.32;100.00;94914.03;5074101;27;20037;-72
2022/05/18 05:49:19;;;;;;;11.25;5.97;;;;;;;15.33;100.00;94920.06;5062041;27;20040;-72
2022/05/18 05:51:46;;;;;;;9.10;6.00;;;;;;;15.26;100.00;94909.81;5083488;27;20105;-72
2022/05/18 05:54:13;;;;;;;17.05;8.55;;;;;;;15.32;100.00;94914.03;5084003;27;20046;-73
2022/05/18 05:56:40;;;;;;;9.52;5.72;;;;;;;15.33;100.00;94905.13;5047517;27;20115;-72
2022/05/18 05:59:07;;;;;;;9.80;5.95;;;;;;;15.31;100.00;94907.22;5035522;27;20045;-72
2022/05/18 06:01:34;;;;;;;11.05;6.28;;;;;;;15.39;100.00;94911.94;5032804;27;20098;-73
2022/05/18 06:04:03;;;;;;;9.70;6.18;;;;;;;15.36;100.00;94909.84;5040174;27;20053;-73
2022/05/18 06:06:30;;;;;;;11.82;6.47;;;;;;;15.35;100.00;94913.50;5052121;27;20041;-73
2022/05/18 06:08:58;;;;;;;15.20;7.25;;;;;;;15.35;100.00;94924.00;5046485;27;20040;-73
2022/05/18 06:11:27;;;;;;;11.30;6.45;;;;;;;15.31;100.00;94928.19;5033194;27;20041;-72
2022/05/18 06:13:54;;;;;;;10.40;6.70;;;;;;;15.39;100.00;94929.53;5061029;27;20121;-72
2022/05/18 06:16:21;;;;;;;12.65;7.40;;;;;;;15.37;100.00;94921.91;5042037;27;20034;-72
2022/05/18 06:18:48;;;;;;;12.18;7.18;;;;;;;15.30;100.00;94921.38;5051977;27;20089;-72
2022/05/18 06:21:16;;;;;;;14.68;8.10;;;;;;;15.46;100.00;94936.09;5035036;27;20048;-74
2022/05/18 06:23:43;;;;;;;14.65;8.27;;;;;;;15.39;100.00;94940.03;5034581;27;20037;-72
2022/05/18 06:26:09;;;;;;;13.70;8.45;;;;;;;15.40;100.00;94945.03;5071124;27;20053;-73
2022/05/18 06:28:37;;;;;;;13.57;8.38;;;;;;;15.36;100.00;94941.34;5037065;27;20045;-72
2022/05/18 06:31:04;;;;;;;15.70;8.80;;;;;;;15.16;100.00;94930.75;5019153;27;20049;-74
2022/05/18 06:33:34;;;;;;;14.68;8.00;;;;;;;15.25;100.00;94939.72;5046442;27;20201;-73
2022/05/18 06:36:02;;;;;;;12.57;7.25;;;;;;;15.25;100.00;94951.03;5035438;27;20081;-76
2022/05/18 06:38:30;;;;;;;16.08;9.05;;;;;;;15.24;100.00;94948.66;5083484;27;20463;-73
2022/05/18 06:43:43;;;;;;;17.65;9.48;;;;;;;15.34;100.00;94964.44;5069210;27;20538;-74
2022/05/18 06:46:10;;;;;;;15.20;8.65;;;;;;;15.37;100.00;94963.91;5076589;27;20045;-74
2022/05/18 06:48:40;;;;;;;18.73;8.98;;;;;;;15.26;100.00;94951.78;5045363;27;20055;-76
2022/05/18 06:51:15;;;;;;;10.73;7.32;;;;;;;15.40;100.00;94970.50;5043965;27;20091;-74
2022/05/18 06:53:44;;;;;;;14.52;8.18;;;;;;;15.36;100.00;94962.34;5044092;27;20036;-75
2022/05/18 06:56:11;;;;;;;15.13;9.02;;;;;;;15.39;100.00;94958.41;5034533;27;20041;-75
2022/05/18 06:58:38;;;;;;;14.00;8.25;;;;;;;15.50;100.00;94967.88;5051725;27;20436;-75
2022/05/18 07:01:07;;;;;;;16.48;7.88;;;;;;;15.44;100.00;94964.44;5043845;27;20049;-76
2022/05/18 07:03:34;;;;;;;13.52;8.60;;;;;;;15.59;100.00;94970.78;5116284;27;20179;-76
2022/05/18 07:06:02;;;;;;;13.32;8.27;;;;;;;15.62;100.00;94954.53;5053437;27;20038;-76
2022/05/18 07:08:29;;;;;;;12.73;7.57;;;;;;;15.74;100.00;94973.50;5021483;27;20052;-76
2022/05/18 07:10:57;;;;;;;12.00;7.18;;;;;;;15.67;100.00;94957.16;5045166;27;20384;-76
2022/05/18 07:13:24;;;;;;;12.70;7.75;;;;;;;15.89;100.00;94964.06;5043319;27;20039;-75
2022/05/18 07:15:53;;;;;;;12.52;7.03;;;;;;;15.97;100.00;94960.91;5048539;27;20041;-76
2022/05/18 07:18:26;;;;;;;13.07;7.88;;;;;;;16.04;100.00;94961.44;5063143;27;20057;-73
2022/05/18 07:20:53;;;;;;;13.18;6.78;;;;;;;16.02;100.00;94963.53;5118870;27;20041;-74
2022/05/18 07:23:20;;;;;;;9.52;6.15;;;;;;;15.91;100.00;94943.59;5053816;27;20075;-74
2022/05/18 07:25:47;;;;;;;12.00;6.55;;;;;;;16.01;100.00;94959.34;5058146;27;20054;-73
2022/05/18 07:28:14;;;;;;;9.57;6.90;;;;;;;15.86;100.00;94950.41;5062782;27;20052;-72
2022/05/18 07:30:52;;;;;;;12.65;7.35;;;;;;;15.98;100.00;94962.50;5057466;27;20045;-76
2022/05/18 07:33:21;;;;;;;10.48;6.03;;;;;;;15.92;100.00;94953.03;5053294;27;20045;-74
2022/05/18 07:35:51;;;;;;;10.05;7.35;;;;;;;16.14;100.00;94971.97;5051307;27;20044;-74
2022/05/18 07:38:22;;;;;;;11.13;7.00;;;;;;;16.23;100.00;94970.38;5072087;27;20375;-73
2022/05/18 07:41:08;;;;;;;10.50;7.40;;;;;;;16.28;100.00;94981.94;5139357;27;20403;-73
2022/05/18 07:43:36;;;;;;;9.73;7.18;;;;;;;16.54;100.00;94980.91;5080576;27;20048;-74
2022/05/18 07:46:04;;;;;;;9.25;6.55;;;;;;;16.71;100.00;94980.63;5040231;27;20052;-73
2022/05/18 07:48:32;;;;;;;10.02;6.28;;;;;;;16.75;100.00;94971.16;5040242;27;20061;-73
2022/05/18 07:50:59;;;;;;;10.35;6.53;;;;;;;16.88;100.00;94996.13;5074418;27;20049;-74
2022/05/18 07:53:26;;;;;;;10.93;7.18;;;;;;;16.86;100.00;94971.94;5057053;27;20039;-74
2022/05/18 07:55:53;;;;;;;12.30;5.97;;;;;;;16.90;100.00;94977.47;5040356;27;20055;-74
2022/05/18 07:58:22;;;;;;;8.43;6.15;;;;;;;17.05;100.00;95011.63;5041103;27;20053;-74
2022/05/18 08:00:49;;;;;;;9.02;6.38;;;;;;;17.16;100.00;94993.94;5033041;27;20602;-74
2022/05/18 08:03:16;;;;;;;10.05;7.15;;;;;;;16.90;100.00;94956.41;5128835;27;20410;-74
2022/05/18 08:05:45;;;;;;;10.20;6.55;;;;;;;17.12;100.00;94995.56;5050889;27;20054;-75
2022/05/18 08:08:22;;;;;;;10.93;7.05;;;;;;;17.11;100.00;94994.00;5052785;27;20035;-74
2022/05/18 08:16:25;;;;;;;12.02;8.20;;;;;;;17.51;100.00;95000.94;5078657;27;20047;-75
2022/05/18 08:18:52;;;;;;;11.20;7.13;;;;;;;17.49;100.00;94995.16;5081425;27;20049;-74
2022/05/18 08:21:19;;;;;;;12.65;6.88;;;;;;;17.33;100.00;94981.25;5050874;27;20040;-76
2022/05/18 08:23:46;;;;;;;10.35;6.93;;;;;;;17.30;100.00;94981.78;5050207;27;20494;-74
2022/05/18 08:26:19;;;;;;;10.48;7.47;;;;;;;17.24;100.00;94998.69;5057575;27;20075;-75
2022/05/18 08:28:46;;;;;;;12.65;8.27;;;;;;;17.20;100.00;94987.13;5076887;27;20046;-75
2022/05/18 08:31:15;;;;;;;11.50;7.35;;;;;;;17.33;100.00;94991.78;5093027;27;20041;-75
2022/05/18 08:33:42;;;;;;;10.35;7.72;;;;;;;17.29;100.00;94984.72;5051330;27;20042;-74
2022/05/18 08:36:10;;;;;;;9.75;7.15;;;;;;;17.58;100.00;94998.81;5051607;27;20052;-75
2022/05/18 08:38:37;;;;;;;9.40;7.20;;;;;;;17.62;100.00;94982.47;5050440;27;20052;-75
2022/05/18 08:41:28;;;;;;;11.07;7.95;;;;;;;17.76;100.00;94981.59;5039004;27;20550;-74
2022/05/18 08:44:03;;;;;;;12.55;8.35;;;;;;;18.13;100.00;94998.78;5084514;27;20129;-75
2022/05/18 08:46:53;;;;;;;9.82;7.15;;;;;;;18.34;100.00;94996.00;5129750;27;20033;-74
2022/05/18 08:49:35;;;;;;;10.80;8.05;;;;;;;18.39;100.00;94998.59;5027097;27;20048;-76
2022/05/18 08:52:39;;;;;;;7.82;5.78;;;;;;;18.25;100.00;95000.28;5141619;27;20391;-74
2022/05/18 08:55:46;;;;;;;12.07;7.18;;;;;;;18.44;100.00;94995.94;5048042;27;20536;-74
2022/05/18 08:58:27;;;;;;;9.55;6.60;;;;;;;18.03;100.00;94977.78;5058004;27;20045;-74
2022/05/18 09:00:59;;;;;;;12.90;7.53;;;;;;;17.96;100.00;94993.09;5057765;27;20053;-74
2022/05/18 09:03:36;;;;;;;10.98;7.65;;;;;;;17.91;100.00;94990.50;5047001;27;20037;-75
2022/05/18 09:06:12;;;;;;;11.60;7.13;;;;;;;17.77;100.00;94991.06;5037737;27;20049;-75
2022/05/18 09:08:43;;;;;;;10.45;7.78;;;;;;;17.59;100.00;94973.25;5062728;27;20034;-75
2022/05/18 09:11:19;;;;;;;10.05;7.35;;;;;;;17.49;100.00;94954.88;5045870;27;20524;-76
2022/05/18 09:13:47;;;;;;;13.73;8.02;;;;;;;17.62;100.00;94985.88;5063848;27;20041;-74
2022/05/18 09:16:42;;;;;;;11.48;9.00;;;;;;;17.54;100.00;94997.00;5073098;27;20059;-74
2022/05/18 09:19:13;;;;;;;10.48;7.70;;;;;;;17.20;100.00;95002.91;5051746;27;20053;-75
2022/05/18 09:22:04;;;;;;;11.68;7.40;;;;;;;17.10;100.00;94995.03;5069404;27;20057;-76
2022/05/18 09:24:59;;;;;;;13.07;8.70;;;;;;;16.95;100.00;94986.13;5046303;27;20360;-78
2022/05/18 09:28:04;;;;;;;13.23;8.55;;;;;;;16.83;100.00;95009.28;5054522;27;20060;-77
2022/05/18 09:30:34;;;;;;;25.13;7.20;;;;;;;16.67;100.00;95005.06;5032449;27;20044;-77
2022/05/18 09:33:08;;;;;;;14.07;8.43;;;;;;;16.50;100.00;95000.88;5081319;27;20574;-77
2022/05/18 09:35:51;;;;;;;10.68;6.95;;;;;;;16.39;100.00;94986.19;5074694;27;20053;-76
2022/05/18 09:38:34;;;;;;;9.43;5.88;;;;;;;16.37;100.00;94985.66;5058400;27;20272;-76
2022/05/18 09:41:06;;;;;;;9.82;6.43;;;;;;;16.29;100.00;94988.78;5051515;27;20049;-76
2022/05/18 09:44:08;;;;;;;10.90;5.20;;;;;;;16.31;100.00;94986.69;5060874;27;20101;-76
2022/05/18 09:46:36;;;;;;;10.73;6.97;;;;;;;16.21;100.00;94976.97;5134428;27;20535;-76
2022/05/18 09:49:12;;;;;;;9.93;5.93;;;;;;;16.33;100.00;94968.81;5048493;27;20072;-76
2022/05/18 09:51:44;;;;;;;8.93;4.43;;;;;;;16.52;100.00;94955.94;5061477;27;20141;-77
2022/05/18 09:54:10;;;;;;;4.95;3.65;;;;;;;17.07;100.00;94971.88;5052370;27;20055;-77
2022/05/18 09:56:52;;;;;;;5.03;3.20;;;;;;;17.22;100.00;94963.94;5050753;27;20068;-75
2022/05/18 09:59:28;;;;;;;5.43;3.30;;;;;;;17.30;100.00;94954.69;5047859;27;20037;-75
2022/05/18 10:07:37;;;;;;;4.10;3.40;;;;;;;17.90;100.00;94988.94;5059378;27;20095;-75
2022/05/18 10:10:11;;;;;;;5.85;4.10;;;;;;;17.86;100.00;94987.88;5072833;27;20105;-74
2022/05/18 10:12:48;;;;;;;4.77;3.40;;;;;;;17.80;100.00;94995.00;5021580;27;20052;-75
2022/05/18 10:15:38;;;;;;;3.47;2.05;;;;;;;17.68;93.99;94997.16;5036478;27;20060;-75
2022/05/18 10:18:11;;;;;;;2.38;1.33;;;;;;;17.52;93.43;95009.63;5036317;27;20144;-74
2022/05/18 10:20:42;;;;;;;3.50;2.22;;;;;;;17.32;93.30;95007.84;5072678;27;20079;-74
2022/05/18 10:23:41;;;;;;;2.22;1.40;;;;;;;17.37;93.71;95016.53;5045155;27;20608;-74
2022/05/18 10:26:11;;;;;;;1.23;0.95;;;;;;;17.84;90.75;95026.88;5048563;27;20477;-74
2022/05/18 10:28:42;;;;;;;1.85;1.38;;;;;;;18.10;93.41;95025.69;5084729;27;20439;-74
2022/05/18 10:31:25;;;;;;;3.67;2.20;;;;;;;18.73;91.67;95035.50;5076996;27;20044;-74
2022/05/18 10:34:10;;;;;;;1.93;0.87;;;;;;;18.85;87.48;95035.19;5076106;27;20056;-73
2022/05/18 10:36:41;;;;;;;;;;;;;;;19.09;88.46;95040.50;5068681;27;20469;-73
2022/05/18 10:39:09;;;;;;;1.80;1.40;;;;;;;18.80;83.79;95027.28;5054945;27;20476;-73
2022/05/18 10:41:43;;;;;;;2.47;1.77;;;;;;;18.63;84.29;95053.28;5076758;27;20034;-74
2022/05/18 10:44:20;;;;;;;1.83;1.10;;;;;;;18.45;84.77;95052.88;5018863;27;20056;-74
2022/05/18 10:46:50;;;;;;;1.25;0.90;;;;;;;18.56;84.96;95063.34;5136350;27;20082;-75
2022/05/18 10:49:33;;;;;;;1.75;1.00;;;;;;;19.06;86.21;95066.66;5043104;27;20097;-74
2022/05/18 10:52:26;;;;;;;1.90;1.30;;;;;;;19.48;86.59;95078.38;5061017;27;20861;-75
2022/05/18 10:55:01;;;;;;;1.00;0.90;;;;;;;19.67;81.52;95079.22;5033294;27;20076;-76
2022/05/18 10:57:36;;;;;;;0.98;0.77;;;;;;;19.67;82.88;95081.09;5073051;27;20133;-75
2022/05/18 11:00:06;;;;;;;1.83;1.10;;;;;;;19.66;82.95;95090.06;5059100;27;20585;-74
2022/05/18 11:02:52;;;;;;;0.60;0.43;;;;;;;19.57;82.16;95087.28;5074091;27;20098;-73
2022/05/18 11:05:35;;;;;;;0.90;0.68;;;;;;;19.36;82.91;95091.19;5036503;27;21360;-75
2022/05/18 11:08:06;;;;;;;0.57;0.45;;;;;;;19.17;83.91;95091.09;5034710;27;20049;-74
2022/05/18 11:11:08;;;;;;;0.90;0.50;;;;;;;18.85;83.33;95098.53;5074071;27;20379;-73
2022/05/18 11:13:54;;;;;;;0.40;0.20;;;;;;;18.60;84.08;95111.84;5037593;27;20060;-73
2022/05/18 11:16:44;;;;;;;0.60;0.50;;;;;;;18.43;85.29;95118.28;5065227;27;20047;-73
2022/05/18 11:19:40;;;;;;;0.40;0.30;;;;;;;18.08;86.42;95132.47;5136865;27;20531;-73
2022/05/18 11:22:34;;;;;;;7.45;0.38;;;;;;;17.77;87.50;95133.31;5071974;27;20052;-73
2022/05/18 11:25:12;;;;;;;0.45;0.22;;;;;;;17.59;88.25;95152.31;5060070;27;20702;-72
2022/05/18 11:28:38;;;;;;;0.32;0.10;;;;;;;17.41;88.15;95145.00;5033118;27;20090;-73
2022/05/18 11:31:08;;;;;;;;;;;;;;;17.14;88.24;95151.34;5137593;27;20047;-73
2022/05/18 11:33:53;;;;;;;0.30;0.20;;;;;;;17.02;89.79;95142.94;5049195;27;20436;-72
2022/05/18 11:37:15;;;;;;;0.10;0.10;;;;;;;17.12;89.59;95148.19;5043487;27;20044;-72
2022/05/18 11:40:04;;;;;;;0.10;0.10;;;;;;;17.05;88.67;95160.81;5071766;28;20125;-72
2022/05/18 11:42:54;;;;;;;0.25;0.10;;;;;;;16.90;88.33;95172.13;5059063;27;20068;-71
2022/05/18 11:45:38;;;;;;;0.20;0.15;;;;;;;16.94;89.47;95173.97;5066947;27;20048;-72
2022/05/18 11:48:43;;;;;;;0.20;0.10;;;;;;;16.92;87.04;95165.53;5070758;27;20033;-71
2022/05/18 11:51:35;;;;;;;0.20;0.20;;;;;;;16.65;86.65;95181.53;5037695;27;20056;-71
2022/05/18 11:54:32;;;;;;;0.22;0.20;;;;;;;16.63;87.59;95184.41;5031978;27;20435;-72
2022/05/18 11:57:03;;;;;;;0.30;0.22;;;;;;;16.78;86.91;95190.75;5038025;27;20037;-72
2022/05/18 11:59:45;;;;;;;0.30;0.10;;;;;;;16.89;85.56;95197.66;5039999;27;20710;-72
2022/05/18 12:02:36;;;;;;;0.30;0.10;;;;;;;17.00;85.71;95201.88;5040415;27;20447;-71
2022/05/18 12:05:15;;;;;;;0.40;0.30;;;;;;;17.11;83.62;95209.78;5040958;27;20492;-71